createdAt,value
2022-08-19T00:02:00.776Z,100694.84
2022-08-19T00:04:31.396Z,100694.44
2022-08-19T00:06:58.613Z,100682.34
2022-08-19T00:09:26.065Z,100693.28
2022-08-19T00:11:56.425Z,100684.31
2022-08-19T00:14:25.264Z,100686.13
2022-08-19T00:16:55.141Z,100689.44
2022-08-19T00:19:25.616Z,100688.66
2022-08-19T00:21:53.003Z,100690.84
2022-08-19T00:24:20.779Z,100695.81
2022-08-19T00:26:47.536Z,100707.19
2022-08-19T00:29:17.084Z,100701.22
2022-08-19T00:31:44.793Z,100693.66
2022-08-19T00:34:13.070Z,100692.78
2022-08-19T00:36:40.904Z,100693.78
2022-08-19T00:39:08.000Z,100691.50
2022-08-19T00:41:35.029Z,100689.31
2022-08-19T00:44:14.722Z,100689.78
2022-08-19T00:46:44.501Z,100684.44
2022-08-19T00:49:17.009Z,100696.66
2022-08-19T00:51:47.796Z,100695.22
2022-08-19T00:54:15.425Z,100694.16
2022-08-19T00:56:42.794Z,100692.53
2022-08-19T00:59:10.305Z,100698.91
2022-08-19T01:01:39.433Z,100697.66
2022-08-19T01:04:06.564Z,100696.00
2022-08-19T01:06:34.767Z,100695.22
2022-08-19T01:09:01.360Z,100691.88
2022-08-19T01:11:29.503Z,100699.13
2022-08-19T01:13:56.275Z,100701.59
2022-08-19T01:16:26.266Z,100691.72
2022-08-19T01:18:53.327Z,100681.38
2022-08-19T01:21:34.077Z,100682.66
2022-08-19T01:24:00.891Z,100681.41
2022-08-19T01:26:28.617Z,100677.09
2022-08-19T01:29:00.794Z,100676.66
2022-08-19T01:31:33.180Z,100682.50
2022-08-19T01:34:02.275Z,100676.94
2022-08-19T01:36:34.129Z,100676.53
2022-08-19T01:39:03.841Z,100669.31
2022-08-19T01:41:30.411Z,100662.28
2022-08-19T01:44:13.316Z,100665.16
2022-08-19T01:46:48.217Z,100660.66
2022-08-19T01:49:15.435Z,100661.69
2022-08-19T01:51:42.047Z,100663.13
2022-08-19T01:54:10.697Z,100661.47
2022-08-19T01:56:37.598Z,100670.50
2022-08-19T01:59:09.478Z,100668.44
2022-08-19T02:01:36.210Z,100678.19
2022-08-19T02:04:03.272Z,100675.47
2022-08-19T02:06:29.977Z,100678.56
2022-08-19T02:08:57.341Z,100682.47
2022-08-19T02:11:32.442Z,100679.53
2022-08-19T02:14:00.159Z,100674.00
2022-08-19T02:16:26.812Z,100673.63
2022-08-19T02:18:53.432Z,100674.22
2022-08-19T02:21:21.962Z,100669.50
2022-08-19T02:23:49.554Z,100671.16
2022-08-19T02:26:16.413Z,100674.44
2022-08-19T02:28:43.550Z,100666.63
2022-08-19T02:31:16.112Z,100671.34
2022-08-19T02:33:42.793Z,100673.03
2022-08-19T02:36:11.967Z,100666.03
2022-08-19T02:38:39.222Z,100670.97
2022-08-19T02:41:11.933Z,100671.13
2022-08-19T02:43:39.600Z,100674.88
2022-08-19T02:46:15.832Z,100677.72
2022-08-19T02:48:42.423Z,100689.06
2022-08-19T02:51:09.092Z,100685.56
2022-08-19T02:53:36.003Z,100688.88
2022-08-19T02:56:06.939Z,100692.59
2022-08-19T02:58:33.527Z,100699.84
2022-08-19T03:01:00.183Z,100693.00
2022-08-19T03:03:27.451Z,100689.75
2022-08-19T03:06:14.558Z,100691.00
2022-08-19T03:08:44.750Z,100691.78
2022-08-19T03:11:18.924Z,100690.13
2022-08-19T03:13:46.160Z,100688.88
2022-08-19T03:16:13.637Z,100688.91
2022-08-19T03:18:40.202Z,100693.88
2022-08-19T03:21:07.660Z,100692.03
2022-08-19T03:23:39.943Z,100692.44
2022-08-19T03:26:16.746Z,100695.34
2022-08-19T03:28:51.340Z,100705.44
2022-08-19T03:31:45.626Z,100701.94
2022-08-19T03:34:22.165Z,100708.31
2022-08-19T03:36:49.047Z,100713.69
2022-08-19T03:39:17.295Z,100713.31
2022-08-19T03:41:48.267Z,100715.97
2022-08-19T03:44:17.917Z,100713.69
2022-08-19T03:46:47.075Z,100708.31
2022-08-19T03:49:14.231Z,100713.91
2022-08-19T03:51:42.990Z,100723.19
2022-08-19T03:54:12.754Z,100715.56
2022-08-19T03:56:41.100Z,100722.16
2022-08-19T03:59:10.100Z,100731.66
2022-08-19T04:01:36.741Z,100712.66
2022-08-19T04:04:04.887Z,100719.03
2022-08-19T04:06:39.644Z,100719.47
2022-08-19T04:09:09.651Z,100726.50
2022-08-19T04:11:44.280Z,100726.50
2022-08-19T04:14:14.598Z,100724.84
2022-08-19T04:16:41.718Z,100729.16
2022-08-19T04:19:08.299Z,100730.34
2022-08-19T04:21:35.089Z,100732.84
2022-08-19T04:24:03.958Z,100727.28
2022-08-19T04:26:36.615Z,100732.63
2022-08-19T04:29:12.118Z,100732.41
2022-08-19T04:31:41.020Z,100734.06
2022-08-19T04:34:11.722Z,100739.25
2022-08-19T04:36:42.283Z,100733.66
2022-08-19T04:39:16.785Z,100732.66
2022-08-19T04:42:02.440Z,100725.22
2022-08-19T04:44:31.532Z,100735.31
2022-08-19T04:47:00.246Z,100724.19
2022-08-19T04:49:28.264Z,100737.59
2022-08-19T04:51:55.297Z,100739.03
2022-08-19T04:54:37.686Z,100746.03
2022-08-19T04:57:09.561Z,100755.13
2022-08-19T04:59:37.813Z,100756.81
2022-08-19T05:02:05.157Z,100756.97
2022-08-19T05:04:33.337Z,100762.16
2022-08-19T05:07:01.980Z,100759.69
2022-08-19T05:09:36.114Z,100766.66
2022-08-19T05:12:17.331Z,100764.59
2022-08-19T05:14:45.383Z,100773.72
2022-08-19T05:17:27.212Z,100781.13
2022-08-19T05:20:15.086Z,100777.44
2022-08-19T05:22:42.393Z,100782.97
2022-08-19T05:25:14.243Z,100780.69
2022-08-19T05:27:43.063Z,100780.09
2022-08-19T05:30:11.233Z,100785.03
2022-08-19T05:32:38.497Z,100777.44
2022-08-19T05:35:06.006Z,100784.44
2022-08-19T05:37:35.607Z,100788.75
2022-08-19T05:40:02.593Z,100787.53
2022-08-19T05:42:29.244Z,100788.56
2022-08-19T05:44:56.964Z,100786.88
2022-08-19T05:47:24.077Z,100785.03
2022-08-19T05:49:51.639Z,100791.44
2022-08-19T05:52:19.668Z,100785.47
2022-08-19T05:54:52.618Z,100792.47
2022-08-19T05:57:20.349Z,100801.34
2022-08-19T05:59:52.654Z,100798.88
2022-08-19T06:02:20.445Z,100799.72
2022-08-19T06:04:47.227Z,100790.41
2022-08-19T06:07:13.751Z,100791.22
2022-08-19T06:09:40.914Z,100781.53
2022-08-19T06:12:08.258Z,100779.22
2022-08-19T06:14:37.513Z,100769.47
2022-08-19T06:17:07.532Z,100778.56
2022-08-19T06:19:34.717Z,100774.81
2022-08-19T06:22:08.539Z,100770.84
2022-08-19T06:24:36.173Z,100780.53
2022-08-19T06:27:06.611Z,100784.84
2022-08-19T06:29:33.664Z,100781.69
2022-08-19T06:32:03.435Z,100773.38
2022-08-19T06:34:32.633Z,100776.19
2022-08-19T06:37:02.039Z,100770.56
2022-08-19T06:39:31.873Z,100779.28
2022-08-19T06:42:00.878Z,100772.91
2022-08-19T06:44:31.920Z,100776.31
2022-08-19T06:46:58.528Z,100784.31
2022-08-19T06:49:31.974Z,100786.94
2022-08-19T06:52:00.144Z,100782.44
2022-08-19T06:54:30.788Z,100778.13
2022-08-19T06:56:59.324Z,100784.50
2022-08-19T06:59:29.035Z,100796.00
2022-08-19T07:01:57.925Z,100786.28
2022-08-19T07:04:27.999Z,100794.00
2022-08-19T07:07:19.682Z,100797.63
2022-08-19T07:09:52.270Z,100805.63
2022-08-19T07:12:28.255Z,100807.06
2022-08-19T07:14:56.738Z,100808.34
2022-08-19T07:17:24.307Z,100805.25
2022-08-19T07:19:51.352Z,100810.13
2022-08-19T07:22:21.672Z,100818.06
2022-08-19T07:24:51.144Z,100815.91
2022-08-19T07:27:22.508Z,100822.78
2022-08-19T07:29:55.945Z,100825.81
2022-08-19T07:32:26.916Z,100823.72
2022-08-19T07:34:53.622Z,100818.75
2022-08-19T07:37:20.197Z,100826.41
2022-08-19T07:39:46.936Z,100833.16
2022-08-19T07:42:14.669Z,100831.47
2022-08-19T07:44:42.232Z,100831.41
2022-08-19T07:47:49.242Z,100838.91
2022-08-19T07:50:09.712Z,100834.00
2022-08-19T07:52:39.515Z,100838.44
2022-08-19T07:55:13.612Z,100839.31
2022-08-19T07:57:55.431Z,100846.56
2022-08-19T08:00:24.543Z,100844.25
2022-08-19T08:02:52.175Z,100851.31
2022-08-19T08:05:43.389Z,100860.06
2022-08-19T08:08:29.552Z,100860.81
2022-08-19T08:10:57.088Z,100853.16
2022-08-19T08:13:25.538Z,100860.81
2022-08-19T08:15:54.775Z,100860.00
2022-08-19T08:18:27.971Z,100859.16
2022-08-19T08:20:57.764Z,100861.41
2022-08-19T08:23:26.179Z,100871.63
2022-08-19T08:25:55.912Z,100862.44
2022-08-19T08:28:24.105Z,100871.19
2022-08-19T08:30:51.735Z,100862.25
2022-08-19T08:33:33.012Z,100854.03
2022-08-19T08:36:03.702Z,100870.72
2022-08-19T08:38:38.797Z,100866.91
2022-08-19T08:41:20.251Z,100873.91
2022-08-19T08:43:50.062Z,100864.22
2022-08-19T08:46:57.167Z,100861.72
2022-08-19T08:49:27.989Z,100859.88
2022-08-19T08:52:23.766Z,100863.09
2022-08-19T08:54:56.021Z,100859.13
2022-08-19T08:57:49.781Z,100861.56
2022-08-19T09:00:20.866Z,100860.31
2022-08-19T09:02:50.393Z,100856.88
2022-08-19T09:05:22.354Z,100855.84
2022-08-19T09:08:14.783Z,100860.09
2022-08-19T09:10:56.141Z,100854.78
2022-08-19T09:13:38.778Z,100859.75
2022-08-19T09:16:14.855Z,100859.75
2022-08-19T09:18:45.562Z,100859.25
2022-08-19T09:21:12.349Z,100857.03
2022-08-19T09:23:38.913Z,100849.47
2022-08-19T09:26:14.566Z,100848.56
2022-08-19T09:28:45.118Z,100849.16
2022-08-19T09:31:18.801Z,100841.16
2022-08-19T09:33:46.261Z,100850.94
2022-08-19T09:36:24.315Z,100843.94
2022-08-19T09:39:01.510Z,100842.59
2022-08-19T09:41:28.930Z,100837.47
2022-08-19T09:43:58.528Z,100844.25
2022-08-19T09:46:29.013Z,100846.28
2022-08-19T09:48:59.458Z,100847.25
2022-08-19T09:51:33.240Z,100841.94
2022-08-19T09:54:05.103Z,100836.09
2022-08-19T09:56:34.518Z,100843.44
2022-08-19T09:59:02.952Z,100838.56
2022-08-19T10:01:31.679Z,100843.34
2022-08-19T10:04:00.339Z,100837.56
2022-08-19T10:06:44.098Z,100843.09
2022-08-19T10:09:14.067Z,100838.19
2022-08-19T10:11:49.871Z,100830.16
2022-08-19T10:14:23.243Z,100830.91
2022-08-19T10:16:50.458Z,100829.22
2022-08-19T10:19:25.416Z,100833.47
2022-08-19T10:21:53.559Z,100833.13
2022-08-19T10:24:21.593Z,100828.09
2022-08-19T10:26:57.286Z,100828.16
2022-08-19T10:29:31.878Z,100837.81
2022-08-19T10:32:04.377Z,100821.44
2022-08-19T10:34:32.340Z,100827.31
2022-08-19T10:37:00.966Z,100822.41
2022-08-19T10:39:41.064Z,100820.75
2022-08-19T10:42:11.662Z,100815.91
2022-08-19T10:44:38.584Z,100815.50
2022-08-19T10:47:24.319Z,100818.19
2022-08-19T10:50:11.676Z,100804.75
2022-08-19T10:52:49.949Z,100813.72
2022-08-19T10:55:40.883Z,100814.03
2022-08-19T10:58:13.261Z,100807.63
2022-08-19T11:00:41.383Z,100806.47
2022-08-19T11:03:08.084Z,100806.19
2022-08-19T11:05:40.185Z,100802.19
2022-08-19T11:08:22.270Z,100800.66
2022-08-19T11:10:50.649Z,100802.25
2022-08-19T11:13:17.253Z,100805.16
2022-08-19T11:15:44.118Z,100805.50
2022-08-19T11:18:13.472Z,100798.41
2022-08-19T11:20:40.264Z,100799.72
2022-08-19T11:23:07.446Z,100803.53
2022-08-19T11:25:34.282Z,100797.31
2022-08-19T11:28:00.854Z,100790.28
2022-08-19T11:30:28.878Z,100783.56
2022-08-19T11:32:55.559Z,100793.09
2022-08-19T11:35:24.242Z,100792.84
2022-08-19T11:37:50.859Z,100794.88
2022-08-19T11:40:17.720Z,100793.13
2022-08-19T11:42:57.121Z,100794.41
2022-08-19T11:45:29.024Z,100791.56
2022-08-19T11:47:56.225Z,100794.41
2022-08-19T11:50:24.530Z,100798.56
2022-08-19T11:52:55.001Z,100786.44
2022-08-19T11:55:21.702Z,100784.25
2022-08-19T11:57:48.402Z,100777.81
2022-08-19T12:00:15.235Z,100785.28
2022-08-19T12:02:42.139Z,100782.34
2022-08-19T12:05:12.588Z,100777.72
2022-08-19T12:07:44.703Z,100786.88
2022-08-19T12:10:11.713Z,100794.66
2022-08-19T12:12:43.379Z,100785.88
2022-08-19T12:15:11.991Z,100787.59
2022-08-19T12:17:39.429Z,100788.50
2022-08-19T12:20:07.797Z,100786.13
2022-08-19T12:22:34.402Z,100780.63
2022-08-19T12:25:01.953Z,100777.13
2022-08-19T12:27:40.126Z,100771.78
2022-08-19T12:30:11.782Z,100770.69
2022-08-19T12:32:38.977Z,100773.66
2022-08-19T12:35:07.555Z,100769.41
2022-08-19T12:37:34.750Z,100765.69
2022-08-19T12:40:02.000Z,100769.34
2022-08-19T12:42:28.815Z,100771.69
2022-08-19T12:44:55.909Z,100765.72
2022-08-19T12:47:23.139Z,100762.84
2022-08-19T12:49:54.132Z,100756.22
2022-08-19T12:52:23.200Z,100755.94
2022-08-19T12:54:54.525Z,100760.91
2022-08-19T12:57:23.738Z,100756.75
2022-08-19T12:59:59.399Z,100750.44
2022-08-19T13:02:26.051Z,100750.81
2022-08-19T13:04:52.608Z,100741.97
2022-08-19T13:07:19.203Z,100749.59
2022-08-19T13:09:45.749Z,100740.25
2022-08-19T13:12:14.080Z,100735.16
2022-08-19T13:14:41.415Z,100739.75
2022-08-19T13:17:09.242Z,100744.34
2022-08-19T13:19:37.983Z,100735.09
2022-08-19T13:22:04.637Z,100737.78
2022-08-19T13:24:41.961Z,100734.50
2022-08-19T13:27:12.045Z,100720.41
2022-08-19T13:29:59.776Z,100720.81
2022-08-19T13:32:44.718Z,100718.97
2022-08-19T13:35:14.905Z,100723.94
2022-08-19T13:37:43.532Z,100717.97
2022-08-19T13:40:19.533Z,100713.59
2022-08-19T13:42:48.526Z,100722.59
2022-08-19T13:45:19.013Z,100720.91
2022-08-19T13:47:53.625Z,100717.56
2022-08-19T13:50:28.638Z,100721.47
2022-08-19T13:52:57.249Z,100710.13
2022-08-19T13:55:25.113Z,100706.72
2022-08-19T13:57:57.717Z,100708.97
2022-08-19T14:00:27.466Z,100708.13
2022-08-19T14:02:56.741Z,100706.16
2022-08-19T14:05:25.148Z,100692.97
2022-08-19T14:07:51.702Z,100695.44
2022-08-19T14:10:19.970Z,100701.16
2022-08-19T14:12:47.512Z,100707.44
2022-08-19T14:15:14.999Z,100700.88
2022-08-19T14:17:43.629Z,100700.34
2022-08-19T14:20:17.747Z,100715.41
2022-08-19T14:22:46.831Z,100708.16
2022-08-19T14:25:21.078Z,100714.41
2022-08-19T14:27:49.207Z,100716.88
2022-08-19T14:30:19.158Z,100714.66
2022-08-19T14:32:45.805Z,100722.81
2022-08-19T14:35:15.180Z,100732.84
2022-08-19T14:37:45.468Z,100725.38
2022-08-19T14:40:15.074Z,100723.63
2022-08-19T14:42:42.885Z,100723.00
2022-08-19T14:45:11.704Z,100719.03
2022-08-19T14:47:39.632Z,100735.38
2022-08-19T14:50:18.505Z,100729.56
2022-08-19T14:52:48.744Z,100731.16
2022-08-19T14:55:17.456Z,100724.88
2022-08-19T14:57:45.109Z,100714.19
2022-08-19T15:00:14.057Z,100726.88
2022-08-19T15:02:45.227Z,100727.84
2022-08-19T15:05:13.650Z,100734.41
2022-08-19T15:07:41.283Z,100724.75
2022-08-19T15:10:12.325Z,100727.72
2022-08-19T15:12:41.195Z,100728.88
2022-08-19T15:15:13.672Z,100716.03
2022-08-19T15:17:54.849Z,100735.34
2022-08-19T15:20:23.696Z,100728.44
2022-08-19T15:22:50.307Z,100733.66
2022-08-19T15:25:19.549Z,100738.56
2022-08-19T15:27:46.476Z,100730.50
2022-08-19T15:30:19.056Z,100733.53
2022-08-19T15:32:48.944Z,100739.13
2022-08-19T15:35:16.244Z,100749.41
2022-08-19T15:37:42.900Z,100752.16
2022-08-19T15:40:09.806Z,100747.53
2022-08-19T15:42:38.547Z,100745.16
2022-08-19T15:45:07.732Z,100753.59
2022-08-19T15:47:34.832Z,100749.19
2022-08-19T15:50:15.163Z,100748.63
2022-08-19T15:53:03.524Z,100751.72
2022-08-19T15:55:34.757Z,100748.69
2022-08-19T15:58:29.373Z,100754.81
2022-08-19T16:01:21.542Z,100755.25
2022-08-19T16:04:13.989Z,100742.53
2022-08-19T16:06:47.748Z,100753.41
2022-08-19T16:09:15.795Z,100752.88
2022-08-19T16:11:45.958Z,100764.19
2022-08-19T16:14:15.161Z,100759.34
2022-08-19T16:16:42.109Z,100758.66
2022-08-19T16:19:10.383Z,100767.28
2022-08-19T16:21:41.897Z,100770.75
2022-08-19T16:24:12.097Z,100768.81
2022-08-19T16:26:39.235Z,100764.81
2022-08-19T16:29:08.883Z,100775.84
2022-08-19T16:31:39.691Z,100769.81
2022-08-19T16:34:06.675Z,100773.41
2022-08-19T16:36:34.182Z,100770.06
2022-08-19T16:39:01.259Z,100772.47
2022-08-19T16:41:28.532Z,100771.09
2022-08-19T16:43:55.691Z,100759.28
2022-08-19T16:46:24.648Z,100774.63
2022-08-19T16:48:54.060Z,100762.41
2022-08-19T16:51:22.851Z,100762.31
2022-08-19T16:53:52.983Z,100766.28
2022-08-19T16:56:22.168Z,100768.19
2022-08-19T16:58:50.533Z,100766.22
2022-08-19T17:01:18.062Z,100766.91
2022-08-19T17:03:45.174Z,100767.03
2022-08-19T17:06:26.070Z,100770.56
2022-08-19T17:08:56.510Z,100766.97
2022-08-19T17:11:24.632Z,100769.59
2022-08-19T17:13:52.022Z,100764.19
2022-08-19T17:16:22.133Z,100770.63
2022-08-19T17:18:52.774Z,100770.78
2022-08-19T17:21:21.145Z,100767.78
2022-08-19T17:23:48.744Z,100766.06
2022-08-19T17:26:18.366Z,100762.81
2022-08-19T17:28:49.619Z,100763.53
2022-08-19T17:31:17.868Z,100761.38
2022-08-19T17:33:48.154Z,100771.66
2022-08-19T17:36:17.250Z,100769.66
2022-08-19T17:38:44.188Z,100767.50
2022-08-19T17:41:10.746Z,100765.06
2022-08-19T17:43:42.814Z,100763.06
2022-08-19T17:46:13.228Z,100760.63
2022-08-19T17:48:51.472Z,100774.19
2022-08-19T17:51:22.534Z,100770.09
2022-08-19T17:53:50.875Z,100768.69
2022-08-19T17:56:18.245Z,100765.50
2022-08-19T17:58:51.145Z,100770.09
2022-08-19T18:01:36.951Z,100760.88
2022-08-19T18:04:16.058Z,100766.88
2022-08-19T18:06:50.291Z,100765.50
2022-08-19T18:09:20.695Z,100759.25
2022-08-19T18:11:52.454Z,100761.88
2022-08-19T18:14:20.625Z,100755.47
2022-08-19T18:16:47.332Z,100760.34
2022-08-19T18:19:13.913Z,100761.88
2022-08-19T18:21:40.887Z,100760.50
2022-08-19T18:24:07.974Z,100772.06
2022-08-19T18:26:34.952Z,100758.38
2022-08-19T18:29:02.075Z,100768.84
2022-08-19T18:31:30.029Z,100770.75
2022-08-19T18:33:57.208Z,100768.78
2022-08-19T18:36:52.136Z,100777.41
2022-08-19T18:39:29.544Z,100776.34
2022-08-19T18:42:15.165Z,100768.97
2022-08-19T18:45:00.509Z,100775.09
2022-08-19T18:47:45.901Z,100771.50
2022-08-19T18:50:13.017Z,100774.03
2022-08-19T18:52:40.884Z,100780.97
2022-08-19T18:55:08.293Z,100777.97
2022-08-19T18:57:34.931Z,100781.63
2022-08-19T19:00:03.969Z,100785.88
2022-08-19T19:02:38.512Z,100785.53
2022-08-19T19:05:07.404Z,100786.00
2022-08-19T19:07:35.415Z,100788.63
2022-08-19T19:10:02.362Z,100796.41
2022-08-19T19:12:29.702Z,100798.75
2022-08-19T19:14:58.062Z,100794.66
2022-08-19T19:17:28.172Z,100811.13
2022-08-19T19:19:54.786Z,100815.16
2022-08-19T19:22:23.464Z,100810.44
2022-08-19T19:24:51.845Z,100809.88
2022-08-19T19:27:20.624Z,100819.28
2022-08-19T19:29:52.046Z,100820.59
2022-08-19T19:32:22.639Z,100821.63
2022-08-19T19:34:49.933Z,100820.50
2022-08-19T19:37:17.264Z,100822.00
2022-08-19T19:39:46.690Z,100830.13
2022-08-19T19:42:20.313Z,100836.34
2022-08-19T19:44:52.324Z,100840.16
2022-08-19T19:47:19.662Z,100840.63
2022-08-19T19:52:38.403Z,100838.38
2022-08-19T19:55:05.781Z,100850.81
2022-08-19T19:57:32.388Z,100848.94
2022-08-19T19:59:59.484Z,100859.28
2022-08-19T20:02:26.240Z,100869.75
2022-08-19T20:04:54.014Z,100870.25
2022-08-19T20:07:40.602Z,100877.88
2022-08-19T20:10:07.595Z,100873.75
2022-08-19T20:12:34.906Z,100873.66
2022-08-19T20:15:01.508Z,100872.59
2022-08-19T20:17:28.156Z,100871.41
2022-08-19T20:19:57.555Z,100872.78
2022-08-19T20:22:25.794Z,100876.00
2022-08-19T20:24:53.799Z,100879.03
2022-08-19T20:27:20.581Z,100877.75
2022-08-19T20:29:50.962Z,100887.69
2022-08-19T20:32:18.587Z,100886.75
2022-08-19T20:34:48.998Z,100888.75
2022-08-19T20:37:15.793Z,100899.25
2022-08-19T20:39:42.409Z,100887.66
2022-08-19T20:42:08.978Z,100886.00
2022-08-19T20:44:35.674Z,100889.72
2022-08-19T20:47:03.977Z,100893.78
2022-08-19T20:49:31.668Z,100894.81
2022-08-19T20:51:58.507Z,100910.41
2022-08-19T20:54:25.825Z,100897.31
2022-08-19T20:56:52.926Z,100900.81
2022-08-19T20:59:20.523Z,100894.78
2022-08-19T21:01:47.728Z,100895.31
2022-08-19T21:04:14.681Z,100902.25
2022-08-19T21:06:42.301Z,100903.22
2022-08-19T21:09:12.114Z,100905.97
2022-08-19T21:11:39.218Z,100905.84
2022-08-19T21:14:06.352Z,100906.94
2022-08-19T21:16:33.896Z,100903.19
2022-08-19T21:19:00.975Z,100900.13
2022-08-19T21:21:27.749Z,100905.00
2022-08-19T21:23:54.456Z,100899.66
2022-08-19T21:26:21.112Z,100906.63
2022-08-19T21:28:47.873Z,100901.13
2022-08-19T21:31:15.845Z,100908.84
2022-08-19T21:33:42.554Z,100895.13
2022-08-19T21:36:09.357Z,100901.28
2022-08-19T21:38:36.154Z,100905.13
2022-08-19T21:41:05.948Z,100905.13
2022-08-19T21:43:34.535Z,100912.00
2022-08-19T21:46:01.796Z,100905.91
2022-08-19T21:48:28.537Z,100907.19
2022-08-19T21:50:55.146Z,100903.22
2022-08-19T21:53:22.858Z,100899.25
2022-08-19T21:55:53.789Z,100904.94
2022-08-19T21:58:30.435Z,100901.91
2022-08-19T22:00:59.078Z,100906.69
2022-08-19T22:03:26.330Z,100914.44
2022-08-19T22:05:53.394Z,100904.81
2022-08-19T22:08:20.046Z,100906.56
2022-08-19T22:10:46.764Z,100906.41
2022-08-19T22:13:14.602Z,100914.19
2022-08-19T22:15:42.490Z,100904.53
2022-08-19T22:18:09.255Z,100904.09
2022-08-19T22:20:36.511Z,100906.78
2022-08-19T22:23:06.493Z,100912.19
2022-08-19T22:25:40.423Z,100903.78
2022-08-19T22:28:28.391Z,100917.44
2022-08-19T22:30:55.946Z,100908.81
2022-08-19T22:33:23.527Z,100911.44
2022-08-19T22:35:52.103Z,100918.19
2022-08-19T22:38:19.373Z,100919.03
2022-08-19T22:40:48.369Z,100921.09
2022-08-19T22:43:19.793Z,100919.22
2022-08-19T22:45:48.098Z,100924.19
2022-08-19T22:48:17.930Z,100926.28
2022-08-19T22:51:07.689Z,100917.81
2022-08-19T22:53:36.350Z,100917.88
2022-08-19T22:56:05.128Z,100923.88
2022-08-19T22:58:31.984Z,100913.38
2022-08-19T23:01:00.308Z,100917.88
2022-08-19T23:03:27.338Z,100915.88
2022-08-19T23:05:56.038Z,100914.81
2022-08-19T23:08:24.164Z,100914.72
2022-08-19T23:10:50.794Z,100908.88
2022-08-19T23:13:18.152Z,100906.94
2022-08-19T23:15:46.444Z,100912.97
2022-08-19T23:18:14.323Z,100915.03
2022-08-19T23:20:42.687Z,100915.53
2022-08-19T23:23:11.817Z,100924.81
2022-08-19T23:25:39.536Z,100924.38
2022-08-19T23:28:25.531Z,100927.06
2022-08-19T23:30:53.521Z,100926.84
2022-08-19T23:33:25.005Z,100929.84
2022-08-19T23:35:54.491Z,100924.28
2022-08-19T23:38:23.333Z,100920.63
2022-08-19T23:40:56.057Z,100923.34
2022-08-19T23:43:25.116Z,100915.91
2022-08-19T23:45:52.038Z,100915.84
2022-08-19T23:48:18.865Z,100921.28
2022-08-19T23:50:46.041Z,100919.41
2022-08-19T23:53:13.487Z,100922.34
2022-08-19T23:55:42.661Z,100923.59
2022-08-19T23:58:09.302Z,100920.97
